Time;durP1;ratioP1;P1;durP2;ratioP2;P2;SDS_P1;SDS_P2;PMS_P1;PMS_P2;Temp;Humidity;BMP_temperature;BMP_pressure;BME280_temperature;BME280_humidity;BME280_pressure;Samples;Min_cycle;Max_cycle;Signal;HPM_P1;HPM_P2
2022/09/09 00:01:51;;;;;;;6.07;2.20;;;;;;;12.08;100.00;100775.09;5285710;28;20024;-73
2022/09/09 00:04:40;;;;;;;6.63;1.80;;;;;;;12.15;100.00;100776.06;5284952;28;20182;-74
2022/09/09 00:07:38;;;;;;;11.10;2.17;;;;;;;12.18;100.00;100779.22;5284495;28;20409;-73
2022/09/09 00:10:15;;;;;;;4.38;2.00;;;;;;;12.15;100.00;100771.53;5285335;28;20473;-73
2022/09/09 00:13:10;;;;;;;8.43;1.52;;;;;;;12.12;100.00;100781.78;5272488;28;20027;-72
2022/09/09 00:15:54;;;;;;;4.43;2.17;;;;;;;12.10;100.00;100775.78;5263844;28;20480;-72
2022/09/09 00:18:50;;;;;;;5.03;2.15;;;;;;;12.14;100.00;100771.69;5285106;28;20495;-73
2022/09/09 00:21:27;;;;;;;5.38;1.92;;;;;;;12.14;100.00;100764.44;5285288;28;20499;-73
2022/09/09 00:23:58;;;;;;;4.68;1.98;;;;;;;12.18;100.00;100767.63;5284618;28;20038;-73
2022/09/09 00:26:47;;;;;;;7.88;2.80;;;;;;;12.21;100.00;100769.13;5284453;28;20543;-73
2022/09/09 00:29:42;;;;;;;6.78;2.20;;;;;;;12.22;100.00;100770.81;5285058;28;20027;-72
2022/09/09 00:32:18;;;;;;;4.68;2.20;;;;;;;12.26;100.00;100774.81;5272611;28;20484;-73
2022/09/09 00:34:54;;;;;;;8.77;2.58;;;;;;;12.25;100.00;100768.59;5284386;28;20039;-74
2022/09/09 00:37:26;;;;;;;4.90;2.42;;;;;;;12.27;100.00;100763.88;5272004;28;20047;-74
2022/09/09 00:40:00;;;;;;;8.35;2.88;;;;;;;12.31;100.00;100767.03;5291290;28;20027;-73
2022/09/09 00:42:41;;;;;;;6.13;2.40;;;;;;;12.34;100.00;100758.59;5289401;28;20020;-73
2022/09/09 00:45:20;;;;;;;4.47;2.25;;;;;;;12.33;100.00;100752.38;5288805;28;20055;-73
2022/09/09 00:47:52;;;;;;;5.75;2.63;;;;;;;12.31;100.00;100750.91;5285654;28;20485;-74
2022/09/09 00:50:55;;;;;;;7.35;2.83;;;;;;;12.28;100.00;100746.72;5278988;28;20674;-73
2022/09/09 00:53:42;;;;;;;6.80;2.15;;;;;;;12.27;100.00;100746.91;5289045;28;20389;-73
2022/09/09 00:56:19;;;;;;;11.55;2.75;;;;;;;12.26;100.00;100737.16;5270278;28;20027;-73
2022/09/09 00:59:06;;;;;;;6.03;2.67;;;;;;;12.23;100.00;100741.03;5288682;28;20485;-73
2022/09/09 01:01:39;;;;;;;93.75;6.05;;;;;;;12.25;100.00;100744.41;5288768;28;20355;-72
2022/09/09 01:04:16;;;;;;;157.95;9.57;;;;;;;12.25;100.00;100748.91;5288194;28;20038;-73
2022/09/09 01:06:57;;;;;;;9.82;2.90;;;;;;;12.22;100.00;100744.75;5289062;28;20020;-72
2022/09/09 01:09:38;;;;;;;237.10;8.48;;;;;;;12.22;100.00;100735.84;5288713;28;20119;-73
2022/09/09 01:12:38;;;;;;;58.55;3.85;;;;;;;12.23;100.00;100732.97;5288751;28;20035;-73
2022/09/09 01:15:16;;;;;;;7.82;2.70;;;;;;;12.34;100.00;100729.00;5287318;28;20024;-73
2022/09/09 01:17:55;;;;;;;5.57;2.38;;;;;;;12.40;100.00;100731.84;5288198;28;20042;-73
2022/09/09 01:20:31;;;;;;;8.13;3.28;;;;;;;12.43;100.00;100731.44;5287960;28;20378;-73
2022/09/09 01:23:31;;;;;;;6.40;3.20;;;;;;;12.54;100.00;100726.66;5288966;28;20118;-72
2022/09/09 01:26:24;;;;;;;12.52;3.90;;;;;;;12.58;100.00;100719.91;5288116;28;20114;-72
2022/09/09 01:28:54;;;;;;;11.80;3.53;;;;;;;12.62;100.00;100721.22;5288055;28;20020;-73
2022/09/09 01:31:31;;;;;;;12.88;3.35;;;;;;;12.69;100.00;100719.44;5288292;28;20035;-73
2022/09/09 01:34:02;;;;;;;7.97;2.83;;;;;;;12.71;100.00;100717.44;5288537;28;20096;-73
2022/09/09 01:36:43;;;;;;;9.20;3.17;;;;;;;12.69;100.00;100708.69;5287388;28;20023;-73
2022/09/09 01:39:14;;;;;;;16.23;3.67;;;;;;;12.73;100.00;100710.00;5288290;28;20507;-73
2022/09/09 01:41:44;;;;;;;10.98;3.53;;;;;;;12.78;100.00;100706.75;5288252;28;20019;-73
2022/09/09 01:44:15;;;;;;;16.83;3.70;;;;;;;12.76;100.00;100698.88;5287059;28;20027;-73
2022/09/09 01:46:45;;;;;;;11.65;3.10;;;;;;;12.79;100.00;100693.09;5269362;28;20028;-72
2022/09/09 01:49:17;;;;;;;12.23;3.38;;;;;;;12.83;100.00;100696.25;5286317;28;20025;-72
2022/09/09 01:51:52;;;;;;;15.27;4.18;;;;;;;12.85;100.00;100699.59;5280591;28;20028;-73
2022/09/09 01:54:27;;;;;;;10.32;3.65;;;;;;;12.91;100.00;100698.88;5269375;28;20060;-72
2022/09/09 01:57:21;;;;;;;13.52;3.25;;;;;;;12.97;100.00;100687.38;5277588;28;20454;-72
2022/09/09 02:00:06;;;;;;;11.65;3.50;;;;;;;12.96;100.00;100697.31;5266925;28;20061;-73
2022/09/09 02:02:52;;;;;;;13.52;3.58;;;;;;;12.91;100.00;100693.50;5271012;28;20035;-73
2022/09/09 02:05:30;;;;;;;12.88;3.10;;;;;;;12.87;100.00;100690.31;5274973;28;20024;-73
2022/09/09 02:08:18;;;;;;;20.40;3.92;;;;;;;12.87;100.00;100692.19;5280499;28;20058;-73
2022/09/09 02:11:12;;;;;;;13.43;3.00;;;;;;;12.87;100.00;100689.50;5269190;28;20080;-75
2022/09/09 02:13:46;;;;;;;13.55;3.83;;;;;;;12.91;100.00;100677.34;5274275;28;20110;-72
2022/09/09 02:16:27;;;;;;;12.10;3.08;;;;;;;12.91;100.00;100690.81;5286834;28;20027;-72
2022/09/09 02:19:18;;;;;;;12.68;4.75;;;;;;;12.99;100.00;100681.78;5287060;28;20024;-73
2022/09/09 02:21:50;;;;;;;9.85;3.30;;;;;;;12.99;100.00;100682.63;5287595;28;20062;-74
2022/09/09 02:24:22;;;;;;;16.60;4.03;;;;;;;13.01;100.00;100683.28;5287212;28;20061;-72
2022/09/09 02:26:56;;;;;;;16.65;3.88;;;;;;;13.02;100.00;100687.63;5286903;28;20098;-73
2022/09/09 02:29:32;;;;;;;11.23;3.47;;;;;;;13.03;100.00;100685.78;5287144;28;20036;-73
2022/09/09 02:32:11;;;;;;;16.05;3.55;;;;;;;13.05;100.00;100681.91;5287251;28;20289;-72
2022/09/09 02:34:57;;;;;;;;;;;;;;;13.10;100.00;100684.00;5286440;28;20026;-73
2022/09/09 02:37:35;;;;;;;14.82;3.95;;;;;;;13.09;100.00;100680.47;5286640;28;20288;-72
2022/09/09 02:40:08;;;;;;;14.75;3.80;;;;;;;13.11;100.00;100683.00;5287375;28;20366;-72
2022/09/09 02:42:41;;;;;;;10.00;3.92;;;;;;;13.07;100.00;100679.00;5287099;28;20118;-72
2022/09/09 02:45:16;;;;;;;12.80;3.72;;;;;;;13.08;100.00;100680.66;5278767;28;20023;-72
2022/09/09 02:48:06;;;;;;;17.17;4.38;;;;;;;13.05;100.00;100689.97;5278765;28;20488;-72
2022/09/09 02:50:56;;;;;;;14.88;3.78;;;;;;;13.06;100.00;100688.94;5277362;28;20091;-73
2022/09/09 02:53:53;;;;;;;14.50;4.07;;;;;;;13.05;100.00;100689.09;5286998;28;20530;-73
2022/09/09 02:56:28;;;;;;;14.90;4.00;;;;;;;13.02;100.00;100697.59;5280326;28;20023;-73
2022/09/09 02:58:58;;;;;;;10.57;3.60;;;;;;;13.04;100.00;100688.28;5278731;28;20058;-72
2022/09/09 03:01:29;;;;;;;15.23;3.65;;;;;;;13.06;100.00;100683.56;5286256;28;20034;-72
2022/09/09 03:03:59;;;;;;;15.55;4.45;;;;;;;13.07;100.00;100689.78;5286613;28;20456;-73
2022/09/09 03:06:30;;;;;;;9.55;3.35;;;;;;;13.06;100.00;100688.13;5285532;28;20452;-73
2022/09/09 03:09:02;;;;;;;14.55;3.60;;;;;;;13.07;100.00;100682.53;5286052;28;20484;-72
2022/09/09 03:11:32;;;;;;;13.07;3.80;;;;;;;13.07;100.00;100687.91;5286624;28;20051;-72
2022/09/09 03:14:03;;;;;;;9.90;3.67;;;;;;;13.09;100.00;100680.47;5285771;28;20050;-73
2022/09/09 03:16:34;;;;;;;15.65;4.10;;;;;;;13.16;100.00;100683.28;5285790;28;20027;-74
2022/09/09 03:19:04;;;;;;;15.05;3.65;;;;;;;13.22;100.00;100682.56;5285538;28;20031;-73
2022/09/09 03:21:35;;;;;;;18.40;3.83;;;;;;;13.22;100.00;100677.16;5286539;28;20514;-72
2022/09/09 03:24:06;;;;;;;13.50;3.60;;;;;;;13.24;100.00;100677.81;5285978;28;20107;-72
2022/09/09 03:26:37;;;;;;;13.68;3.53;;;;;;;13.21;100.00;100680.84;5285880;28;20074;-72
2022/09/09 03:29:07;;;;;;;11.00;3.45;;;;;;;13.22;100.00;100690.63;5285956;28;20508;-73
2022/09/09 03:31:39;;;;;;;16.05;3.15;;;;;;;13.18;100.00;100676.66;5282875;28;20020;-72
2022/09/09 03:34:10;;;;;;;13.77;3.20;;;;;;;13.17;100.00;100675.00;5274579;28;20049;-72
2022/09/09 03:36:41;;;;;;;21.50;3.85;;;;;;;13.20;100.00;100669.25;5268255;28;20081;-73
2022/09/09 03:39:11;;;;;;;14.57;3.72;;;;;;;13.19;100.00;100664.03;5286021;28;20019;-72
2022/09/09 03:41:41;;;;;;;19.02;3.70;;;;;;;13.21;100.00;100665.56;5285810;28;20045;-72
2022/09/09 03:44:12;;;;;;;14.52;3.58;;;;;;;13.25;100.00;100667.84;5285214;28;20020;-72
2022/09/09 03:46:42;;;;;;;11.32;3.72;;;;;;;13.24;100.00;100671.59;5285888;28;20028;-73
2022/09/09 03:49:13;;;;;;;13.80;3.15;;;;;;;13.19;100.00;100672.94;5271961;28;20435;-74
2022/09/09 03:51:43;;;;;;;24.80;4.57;;;;;;;13.21;100.00;100672.78;5285822;28;20023;-73
2022/09/09 03:54:14;;;;;;;11.15;3.70;;;;;;;13.27;100.00;100673.91;5285428;28;20110;-73
2022/09/09 03:56:45;;;;;;;23.02;3.70;;;;;;;13.29;100.00;100671.84;5285757;28;20031;-72
2022/09/09 03:59:15;;;;;;;16.52;3.40;;;;;;;13.32;100.00;100669.63;5285543;28;20107;-72
2022/09/09 04:01:46;;;;;;;11.68;3.10;;;;;;;13.32;100.00;100672.31;5285798;28;20447;-72
2022/09/09 04:04:17;;;;;;;20.60;4.15;;;;;;;13.38;100.00;100668.03;5285109;28;20027;-72
2022/09/09 04:06:48;;;;;;;11.77;3.65;;;;;;;13.41;100.00;100659.59;5285540;28;20407;-73
2022/09/09 04:09:18;;;;;;;14.25;3.88;;;;;;;13.43;100.00;100657.53;5285338;28;20384;-72
2022/09/09 04:11:49;;;;;;;18.70;3.28;;;;;;;13.45;100.00;100660.84;5288266;28;20103;-72
2022/09/09 04:14:19;;;;;;;14.15;3.40;;;;;;;13.46;100.00;100655.28;5289127;28;20103;-73
2022/09/09 04:16:50;;;;;;;17.52;3.10;;;;;;;13.42;100.00;100654.00;5289754;28;20042;-73
2022/09/09 04:19:21;;;;;;;23.83;3.30;;;;;;;13.42;100.00;100650.47;5289898;28;20031;-73
2022/09/09 04:21:51;;;;;;;25.77;3.85;;;;;;;13.33;100.00;100638.97;5289989;28;20294;-74
2022/09/09 04:24:22;;;;;;;13.30;3.47;;;;;;;13.33;100.00;100649.75;5289056;28;20035;-73
2022/09/09 04:26:52;;;;;;;18.58;3.47;;;;;;;13.34;100.00;100650.56;5289800;28;20046;-73
2022/09/09 04:29:23;;;;;;;14.43;3.65;;;;;;;13.33;100.00;100641.66;5289498;28;20388;-72
2022/09/09 04:31:53;;;;;;;11.48;3.30;;;;;;;13.33;100.00;100640.81;5289202;28;20030;-71
2022/09/09 04:34:24;;;;;;;15.63;3.75;;;;;;;13.34;100.00;100634.41;5288720;28;20045;-72
2022/09/09 04:36:56;;;;;;;8.45;3.22;;;;;;;13.39;100.00;100634.66;5289538;28;20031;-72
2022/09/09 04:39:27;;;;;;;12.15;3.55;;;;;;;13.41;100.00;100629.94;5289750;28;20035;-72
2022/09/09 04:41:57;;;;;;;14.80;3.70;;;;;;;13.43;100.00;100628.72;5289647;28;20012;-72
2022/09/09 04:44:28;;;;;;;13.93;3.17;;;;;;;13.47;100.00;100632.69;5288584;28;20024;-71
2022/09/09 04:46:58;;;;;;;19.65;4.00;;;;;;;13.48;100.00;100637.06;5289654;28;20034;-71
2022/09/09 04:49:31;;;;;;;15.98;3.58;;;;;;;13.53;100.00;100628.41;5276531;28;20027;-72
2022/09/09 04:52:03;;;;;;;18.85;3.50;;;;;;;13.57;100.00;100631.56;5291651;28;20084;-73
2022/09/09 04:54:34;;;;;;;23.13;4.60;;;;;;;13.56;100.00;100630.72;5288217;28;20022;-72
2022/09/09 04:57:04;;;;;;;17.08;3.63;;;;;;;13.56;100.00;100640.69;5289840;28;20067;-71
2022/09/09 04:59:35;;;;;;;17.88;3.67;;;;;;;13.55;100.00;100647.06;5288852;28;20027;-72
2022/09/09 05:02:06;;;;;;;20.65;3.70;;;;;;;13.57;100.00;100643.19;5289309;28;20026;-71
2022/09/09 05:04:36;;;;;;;15.00;3.88;;;;;;;13.56;100.00;100638.00;5288096;28;20481;-71
2022/09/09 05:07:07;;;;;;;12.70;3.65;;;;;;;13.57;100.00;100645.88;5288443;28;20023;-72
2022/09/09 05:09:37;;;;;;;11.60;3.80;;;;;;;13.54;100.00;100646.25;5289042;28;20034;-71
2022/09/09 05:12:08;;;;;;;18.30;3.47;;;;;;;13.54;100.00;100643.53;5288965;28;20030;-72
2022/09/09 05:14:38;;;;;;;13.90;3.22;;;;;;;13.56;100.00;100648.75;5287718;28;20034;-72
2022/09/09 05:17:09;;;;;;;24.65;3.90;;;;;;;13.55;100.00;100639.81;5289303;28;20059;-72
2022/09/09 05:19:39;;;;;;;26.67;4.53;;;;;;;13.56;100.00;100648.75;5288330;28;20016;-72
2022/09/09 05:22:11;;;;;;;14.38;3.75;;;;;;;13.56;100.00;100646.06;5273839;28;20024;-72
2022/09/09 05:24:42;;;;;;;13.77;3.60;;;;;;;13.60;100.00;100652.72;5287982;28;20020;-72
2022/09/09 05:27:13;;;;;;;19.70;4.05;;;;;;;13.63;100.00;100649.66;5288583;28;20038;-72
2022/09/09 05:29:44;;;;;;;19.90;4.18;;;;;;;13.71;100.00;100650.38;5288533;28;20023;-72
2022/09/09 05:32:16;;;;;;;19.08;3.63;;;;;;;13.73;100.00;100642.94;5288691;28;20473;-72
2022/09/09 05:34:46;;;;;;;12.38;3.47;;;;;;;13.71;100.00;100646.84;5287680;28;20069;-72
2022/09/09 05:37:17;;;;;;;16.23;3.88;;;;;;;13.73;100.00;100648.31;5288620;28;20139;-72
2022/09/09 05:39:47;;;;;;;15.52;3.85;;;;;;;13.79;100.00;100648.56;5288615;28;20102;-72
2022/09/09 05:42:17;;;;;;;21.45;4.07;;;;;;;13.84;100.00;100651.53;5270563;28;20047;-72
2022/09/09 05:44:48;;;;;;;35.13;4.80;;;;;;;13.90;100.00;100654.28;5286707;28;20436;-72
2022/09/09 05:47:18;;;;;;;19.23;3.72;;;;;;;14.01;100.00;100652.97;5288144;28;20488;-72
2022/09/09 05:49:49;;;;;;;12.85;3.83;;;;;;;14.14;100.00;100649.53;5288333;28;20031;-72
2022/09/09 05:52:20;;;;;;;17.08;4.20;;;;;;;14.29;100.00;100635.97;5288628;28;20425;-72
2022/09/09 05:54:51;;;;;;;20.30;4.25;;;;;;;14.46;100.00;100630.09;5274061;28;20069;-72
2022/09/09 05:57:21;;;;;;;20.08;4.10;;;;;;;14.57;100.00;100634.13;5288053;28;20059;-72
2022/09/09 05:59:51;;;;;;;14.35;4.25;;;;;;;14.80;100.00;100627.59;5288046;28;20066;-72
2022/09/09 06:02:22;;;;;;;14.45;3.38;;;;;;;14.96;100.00;100625.44;5287986;28;20111;-72
2022/09/09 06:04:52;;;;;;;15.63;3.42;;;;;;;15.38;100.00;100620.81;5287275;28;20059;-72
2022/09/09 06:07:23;;;;;;;13.35;3.20;;;;;;;15.76;100.00;100631.97;5275786;28;20078;-72
2022/09/09 06:09:54;;;;;;;14.90;3.15;;;;;;;16.09;100.00;100639.28;5277626;28;20026;-72
2022/09/09 06:12:25;;;;;;;19.92;2.83;;;;;;;16.13;100.00;100640.53;5285130;28;20309;-72
2022/09/09 06:14:56;;;;;;;16.77;3.05;;;;;;;15.98;100.00;100638.03;5284438;28;20045;-72
2022/09/09 06:17:26;;;;;;;9.73;2.78;;;;;;;15.82;100.00;100640.31;5284188;28;20019;-72
2022/09/09 06:19:57;;;;;;;15.68;2.92;;;;;;;15.50;100.00;100634.56;5284654;28;20388;-72
2022/09/09 06:22:27;;;;;;;17.92;2.60;;;;;;;15.43;100.00;100644.53;5284551;28;20031;-72
2022/09/09 06:24:58;;;;;;;13.18;3.45;;;;;;;15.39;100.00;100636.00;5284232;28;20472;-72
2022/09/09 06:27:28;;;;;;;13.55;3.40;;;;;;;15.34;100.00;100641.16;5283880;28;20054;-72
2022/09/09 06:29:59;;;;;;;13.65;2.97;;;;;;;15.36;100.00;100641.81;5266452;28;20030;-72
2022/09/09 06:32:29;;;;;;;8.25;2.13;;;;;;;15.37;100.00;100637.25;5266347;28;20031;-71
2022/09/09 06:35:01;;;;;;;19.83;3.53;;;;;;;15.39;100.00;100632.47;5283057;28;20028;-71
2022/09/09 06:37:31;;;;;;;14.82;3.05;;;;;;;15.42;100.00;100626.66;5283643;28;20019;-72
2022/09/09 06:40:02;;;;;;;18.77;3.33;;;;;;;15.52;100.00;100629.81;5284309;28;20233;-72
2022/09/09 06:42:32;;;;;;;19.08;3.50;;;;;;;15.76;100.00;100631.13;5284426;28;20023;-72
2022/09/09 06:45:03;;;;;;;14.80;3.35;;;;;;;15.79;100.00;100626.13;5277269;28;20035;-72
2022/09/09 06:47:34;;;;;;;16.17;3.20;;;;;;;15.94;100.00;100625.94;5275972;28;20112;-72
2022/09/09 06:50:05;;;;;;;18.35;3.30;;;;;;;16.23;100.00;100624.72;5271012;28;20026;-72
2022/09/09 06:52:36;;;;;;;13.25;3.17;;;;;;;16.56;100.00;100635.50;5283006;28;20028;-72
2022/09/09 06:55:07;;;;;;;12.15;3.05;;;;;;;16.64;100.00;100626.34;5262839;28;20039;-72
2022/09/09 06:57:38;;;;;;;9.52;2.17;;;;;;;16.46;100.00;100636.97;5278472;28;20039;-72
2022/09/09 07:00:09;;;;;;;17.23;3.00;;;;;;;16.42;100.00;100639.28;5283642;28;20028;-73
2022/09/09 07:02:40;;;;;;;13.85;3.20;;;;;;;16.27;100.00;100625.13;5284085;28;20080;-72
2022/09/09 07:05:11;;;;;;;15.63;2.47;;;;;;;16.13;100.00;100637.00;5271289;28;20028;-72
2022/09/09 07:07:42;;;;;;;12.02;2.53;;;;;;;16.00;100.00;100624.28;5275855;28;20055;-72
2022/09/09 07:10:12;;;;;;;14.98;3.63;;;;;;;15.96;100.00;100628.44;5275576;28;20095;-72
2022/09/09 07:12:43;;;;;;;14.50;2.95;;;;;;;15.89;100.00;100635.72;5276194;28;20059;-71
2022/09/09 07:15:13;;;;;;;9.57;2.60;;;;;;;15.82;100.00;100624.91;5281960;28;20023;-72
2022/09/09 07:17:44;;;;;;;18.23;2.83;;;;;;;15.89;100.00;100622.19;5265358;28;20028;-72
2022/09/09 07:20:15;;;;;;;12.82;2.55;;;;;;;15.91;100.00;100629.06;5283288;28;20493;-72
2022/09/09 07:22:45;;;;;;;12.75;2.38;;;;;;;15.99;100.00;100623.44;5265150;28;20027;-71
2022/09/09 07:25:17;;;;;;;20.02;3.97;;;;;;;15.92;100.00;100625.34;5282801;28;20622;-72
2022/09/09 07:27:49;;;;;;;15.10;3.17;;;;;;;15.95;100.00;100622.19;5283330;28;20023;-71
2022/09/09 07:30:19;;;;;;;22.23;3.72;;;;;;;15.95;100.00;100624.06;5269349;28;20042;-71
2022/09/09 07:32:51;;;;;;;10.48;2.28;;;;;;;15.94;100.00;100625.13;5283377;28;20023;-72
2022/09/09 07:35:22;;;;;;;10.35;2.70;;;;;;;15.97;100.00;100619.31;5275341;28;20048;-72
2022/09/09 07:37:52;;;;;;;14.52;3.08;;;;;;;16.04;100.00;100612.00;5275926;28;20062;-72
2022/09/09 07:40:23;;;;;;;11.73;2.78;;;;;;;16.05;100.00;100622.63;5264892;28;20219;-71
2022/09/09 07:42:53;;;;;;;18.02;2.55;;;;;;;16.11;100.00;100620.94;5283065;28;20031;-71
2022/09/09 07:45:24;;;;;;;14.07;3.40;;;;;;;16.07;100.00;100619.72;5282410;28;20336;-71
2022/09/09 07:47:56;;;;;;;16.88;3.33;;;;;;;16.16;100.00;100625.75;5279125;28;20035;-72
2022/09/09 07:50:27;;;;;;;16.17;2.55;;;;;;;16.18;100.00;100624.50;5272757;28;20034;-71
2022/09/09 07:52:58;;;;;;;11.52;2.40;;;;;;;16.23;100.00;100624.72;5283478;28;20019;-72
2022/09/09 07:55:28;;;;;;;17.88;2.70;;;;;;;16.23;100.00;100619.31;5282473;28;20279;-72
2022/09/09 07:57:59;;;;;;;10.68;2.00;;;;;;;16.27;100.00;100622.44;5282389;28;20061;-72
2022/09/09 08:00:29;;;;;;;15.77;2.53;;;;;;;16.26;100.00;100621.56;5264616;28;20024;-71
2022/09/09 08:03:01;;;;;;;13.80;3.28;;;;;;;16.39;100.00;100620.75;5262577;28;20534;-72
2022/09/09 08:05:32;;;;;;;15.38;2.95;;;;;;;16.37;100.00;100619.31;5263340;28;20060;-72
2022/09/09 08:08:03;;;;;;;13.85;2.60;;;;;;;16.35;100.00;100632.19;5282549;28;20250;-71
2022/09/09 08:10:34;;;;;;;18.38;3.08;;;;;;;16.32;100.00;100622.63;5263893;28;20084;-72
2022/09/09 08:13:05;;;;;;;12.10;2.38;;;;;;;16.37;100.00;100622.00;5282861;28;20024;-72
2022/09/09 08:15:35;;;;;;;12.15;1.77;;;;;;;16.35;100.00;100624.91;5282301;28;20055;-71
2022/09/09 08:18:06;;;;;;;7.97;2.08;;;;;;;16.60;100.00;100630.50;5282662;28;20028;-71
2022/09/09 08:20:37;;;;;;;9.50;2.50;;;;;;;16.92;100.00;100617.13;5282604;28;20031;-71
2022/09/09 08:23:07;;;;;;;9.10;1.85;;;;;;;17.38;100.00;100627.78;5282553;28;20506;-71
2022/09/09 08:25:38;;;;;;;11.70;2.40;;;;;;;17.68;100.00;100625.31;5282501;28;20035;-71
2022/09/09 08:28:09;;;;;;;10.32;2.20;;;;;;;17.95;100.00;100630.59;5282359;28;20084;-71
2022/09/09 08:30:40;;;;;;;7.65;2.05;;;;;;;17.99;100.00;100624.50;5282923;28;20032;-72
2022/09/09 08:33:10;;;;;;;11.88;2.25;;;;;;;18.23;100.00;100631.00;5282515;28;20034;-71
2022/09/09 08:35:49;;;;;;;9.18;1.92;;;;;;;18.43;100.00;100635.44;5282242;28;20254;-71
2022/09/09 08:38:20;;;;;;;10.55;2.50;;;;;;;18.19;100.00;100623.53;5281943;28;20023;-72
2022/09/09 08:41:00;;;;;;;6.57;2.25;;;;;;;18.08;100.00;100636.75;5282588;28;20039;-71
2022/09/09 08:43:32;;;;;;;14.23;2.28;;;;;;;17.88;100.00;100640.69;5282880;28;20024;-71
2022/09/09 08:46:15;;;;;;;10.23;1.83;;;;;;;17.75;100.00;100642.41;5281690;28;20442;-72
2022/09/09 08:49:21;;;;;;;14.38;3.15;;;;;;;17.66;100.00;100640.97;5273110;28;20034;-72
2022/09/09 08:51:56;;;;;;;14.13;2.17;;;;;;;17.34;100.00;100646.34;5261948;28;20119;-71
2022/09/09 08:54:33;;;;;;;7.05;2.30;;;;;;;17.16;100.00;100646.22;5276891;28;20100;-72
2022/09/09 08:57:13;;;;;;;12.05;2.75;;;;;;;17.19;100.00;100643.09;5283423;28;20028;-72
2022/09/09 08:59:44;;;;;;;13.10;2.80;;;;;;;17.12;100.00;100638.72;5254507;28;20549;-71
2022/09/09 09:02:21;;;;;;;6.28;1.70;;;;;;;16.97;100.00;100649.84;5286929;28;20118;-71
2022/09/09 09:05:14;;;;;;;11.57;2.28;;;;;;;17.04;100.00;100647.94;5283310;28;20030;-71
2022/09/09 09:08:08;;;;;;;14.32;2.38;;;;;;;16.92;100.00;100660.47;5285673;28;20031;-71
2022/09/09 09:10:38;;;;;;;15.85;2.90;;;;;;;17.02;100.00;100650.03;5272661;28;20035;-71
2022/09/09 09:13:14;;;;;;;10.57;2.40;;;;;;;16.94;100.00;100664.63;5285617;28;20028;-72
2022/09/09 09:15:50;;;;;;;8.38;2.33;;;;;;;16.89;100.00;100669.03;5285769;28;20406;-72
2022/09/09 09:18:20;;;;;;;11.52;2.47;;;;;;;16.75;100.00;100669.06;5285425;28;20285;-72
2022/09/09 09:21:26;;;;;;;13.57;2.50;;;;;;;16.73;100.00;100665.72;5286081;28;20053;-72
2022/09/09 09:23:59;;;;;;;8.90;2.20;;;;;;;16.54;100.00;100678.22;5284069;28;20081;-72
2022/09/09 09:26:34;;;;;;;11.90;2.95;;;;;;;16.42;100.00;100677.19;5283855;28;20216;-72
2022/09/09 09:29:25;;;;;;;8.32;2.83;;;;;;;16.42;100.00;100689.91;5285800;28;20134;-71
2022/09/09 09:32:02;;;;;;;11.57;3.10;;;;;;;16.35;100.00;100687.16;5284242;28;20124;-72
2022/09/09 09:34:32;;;;;;;11.18;2.92;;;;;;;16.36;100.00;100683.41;5283503;28;20388;-71
2022/09/09 09:37:18;;;;;;;9.38;2.47;;;;;;;16.39;100.00;100682.19;5283403;28;20067;-72
2022/09/09 09:39:49;;;;;;;7.68;2.33;;;;;;;16.38;100.00;100680.53;5283814;28;20027;-72
2022/09/09 09:42:20;;;;;;;12.90;2.30;;;;;;;16.39;100.00;100672.19;5283420;28;20012;-71
2022/09/09 09:44:50;;;;;;;9.90;2.33;;;;;;;16.40;100.00;100681.97;5283532;28;20024;-72
2022/09/09 09:47:23;;;;;;;10.30;2.47;;;;;;;16.37;100.00;100678.88;5283265;28;20028;-72
2022/09/09 09:49:58;;;;;;;8.40;3.28;;;;;;;16.47;100.00;100671.16;5264563;28;20059;-72
2022/09/09 09:52:30;;;;;;;11.57;2.90;;;;;;;16.52;100.00;100682.19;5283144;28;20472;-71
2022/09/09 09:55:03;;;;;;;12.88;2.72;;;;;;;16.53;100.00;100676.56;5282890;28;20355;-72
2022/09/09 09:57:35;;;;;;;14.82;2.83;;;;;;;16.51;100.00;100678.63;5283524;28;20030;-71
2022/09/09 10:00:17;;;;;;;8.77;2.22;;;;;;;16.63;100.00;100680.72;5283755;28;20110;-71
2022/09/09 10:02:51;;;;;;;11.50;2.70;;;;;;;16.56;100.00;100681.53;5283490;28;20104;-72
2022/09/09 10:05:25;;;;;;;8.52;1.85;;;;;;;16.65;100.00;100682.16;5282839;28;20110;-72
2022/09/09 10:08:17;;;;;;;13.15;2.20;;;;;;;16.60;100.00;100676.53;5282382;28;20027;-72
2022/09/09 10:11:19;;;;;;;13.85;2.60;;;;;;;16.62;100.00;100676.31;5282452;28;20026;-72
2022/09/09 10:13:59;;;;;;;8.57;2.58;;;;;;;16.75;100.00;100682.59;5282967;28;20027;-71
2022/09/09 10:17:04;;;;;;;14.20;2.70;;;;;;;16.74;100.00;100680.94;5264526;28;20426;-71
2022/09/09 10:19:37;;;;;;;9.30;2.53;;;;;;;17.00;100.00;100688.19;5267183;28;20038;-71
2022/09/09 10:22:27;;;;;;;5.93;1.98;;;;;;;17.06;100.00;100692.75;5282252;28;20020;-72
2022/09/09 10:25:18;;;;;;;8.95;2.25;;;;;;;17.06;100.00;100686.50;5282403;28;20035;-71
2022/09/09 10:28:04;;;;;;;7.03;2.03;;;;;;;17.22;100.00;100685.19;5282614;28;20058;-71
2022/09/09 10:30:52;;;;;;;13.70;2.22;;;;;;;17.21;100.00;100688.94;5283117;28;20114;-71
2022/09/09 10:33:49;;;;;;;10.80;2.35;;;;;;;17.24;100.00;100681.22;5282297;28;20115;-71
2022/09/09 10:36:43;;;;;;;6.75;1.90;;;;;;;17.12;100.00;100693.78;5282034;28;20035;-71
2022/09/09 10:39:20;;;;;;;9.40;2.13;;;;;;;17.08;100.00;100692.53;5281760;28;20043;-71
2022/09/09 10:42:04;;;;;;;8.57;2.20;;;;;;;17.10;100.00;100704.00;5282138;28;20020;-71
2022/09/09 10:44:49;;;;;;;10.80;2.10;;;;;;;17.09;100.00;100695.03;5282248;28;20019;-71
2022/09/09 10:47:54;;;;;;;8.05;2.67;;;;;;;17.15;100.00;100690.63;5281901;28;20481;-71
2022/09/09 10:50:43;;;;;;;8.48;2.50;;;;;;;17.06;100.00;100694.63;5282510;28;20024;-71
2022/09/09 10:53:28;;;;;;;13.60;3.00;;;;;;;17.43;100.00;100705.78;5278251;28;20046;-72
2022/09/09 10:56:07;;;;;;;12.90;2.88;;;;;;;17.56;100.00;100698.41;5280487;28;20027;-72
2022/09/09 10:58:54;;;;;;;9.98;2.63;;;;;;;17.69;100.00;100702.13;5282172;28;20182;-72
2022/09/09 11:01:36;;;;;;;11.63;2.88;;;;;;;17.80;100.00;100687.88;5281718;28;20011;-72
2022/09/09 11:04:13;;;;;;;6.03;2.17;;;;;;;18.04;100.00;100686.28;5281417;28;20100;-72
2022/09/09 11:06:51;;;;;;;4.10;1.85;;;;;;;18.23;100.00;100681.78;5280093;28;20098;-71
2022/09/09 11:09:26;;;;;;;10.73;2.30;;;;;;;18.29;100.00;100694.47;5281353;28;20027;-72
2022/09/09 11:11:59;;;;;;;8.88;2.20;;;;;;;18.35;100.00;100685.41;5281460;28;20020;-72
2022/09/09 11:15:04;;;;;;;10.48;3.17;;;;;;;18.40;100.00;100682.03;5280858;28;20024;-72
2022/09/09 11:17:51;;;;;;;8.07;2.53;;;;;;;18.67;100.00;100679.91;5281993;28;20073;-71
2022/09/09 11:20:25;;;;;;;8.25;2.35;;;;;;;18.77;100.00;100686.53;5281032;28;20023;-71
2022/09/09 11:23:04;;;;;;;6.63;1.90;;;;;;;18.39;100.00;100692.06;5282305;28;20511;-72
2022/09/09 11:25:41;;;;;;;14.32;2.60;;;;;;;18.43;100.00;100690.59;5263346;28;20035;-72
2022/09/09 11:28:50;;;;;;;4.38;1.67;;;;;;;18.42;100.00;100698.94;5281923;28;20019;-72
2022/09/09 11:31:33;;;;;;;6.55;2.03;;;;;;;18.20;100.00;100693.06;5280858;28;20488;-72
2022/09/09 11:34:18;;;;;;;8.63;2.00;;;;;;;18.30;100.00;100690.69;5280022;28;20081;-70
2022/09/09 11:37:26;;;;;;;11.55;2.30;;;;;;;18.31;100.00;100698.59;5281663;28;20024;-69
2022/09/09 11:40:25;;;;;;;5.05;1.45;;;;;;;18.28;100.00;100700.94;5281403;28;20605;-69
2022/09/09 11:43:18;;;;;;;6.97;1.85;;;;;;;18.33;100.00;100696.50;5281506;28;20024;-70
2022/09/09 11:45:55;;;;;;;8.13;1.88;;;;;;;18.47;100.00;100701.81;5281476;28;20046;-69
2022/09/09 11:49:01;;;;;;;9.45;1.77;;;;;;;18.41;100.00;100700.00;5281084;28;20026;-69
2022/09/09 11:51:33;;;;;;;8.75;2.30;;;;;;;18.31;100.00;100693.16;5245282;28;20746;-72
2022/09/09 11:54:41;;;;;;;5.60;1.83;;;;;;;18.52;100.00;100691.13;5280860;28;20043;-72